createdAt,value
2022-12-04T00:01:24.561Z,18.12
2022-12-04T00:03:53.102Z,18.20
2022-12-04T00:06:21.022Z,18.52
2022-12-04T00:08:50.980Z,18.68
2022-12-04T00:11:21.109Z,18.63
2022-12-04T00:13:48.501Z,19.02
2022-12-04T00:16:18.063Z,18.56
2022-12-04T00:18:45.481Z,19.11
2022-12-04T00:21:14.470Z,19.34
2022-12-04T00:23:42.583Z,18.61
2022-12-04T00:26:15.961Z,18.75
2022-12-04T00:28:43.901Z,19.62
2022-12-04T00:31:13.181Z,19.39
2022-12-04T00:33:40.481Z,19.49
2022-12-04T00:36:10.220Z,18.91
2022-12-04T00:38:38.582Z,19.00
2022-12-04T00:41:08.040Z,19.82
2022-12-04T00:43:36.782Z,19.58
2022-12-04T00:46:03.938Z,19.17
2022-12-04T00:48:31.060Z,19.34
2022-12-04T00:51:02.540Z,19.45
2022-12-04T00:53:29.562Z,18.90
2022-12-04T00:55:56.804Z,19.78
2022-12-04T00:58:24.204Z,19.62
2022-12-04T01:01:03.766Z,19.08
2022-12-04T01:03:31.784Z,18.85
2022-12-04T01:05:59.642Z,19.73
2022-12-04T01:08:26.923Z,19.40
2022-12-04T01:10:54.042Z,19.17
2022-12-04T01:13:21.140Z,19.36
2022-12-04T01:15:48.200Z,20.00
2022-12-04T01:18:17.181Z,19.38
2022-12-04T01:20:48.580Z,20.09
2022-12-04T01:23:15.744Z,20.13
2022-12-04T01:25:51.501Z,19.66
2022-12-04T01:28:18.963Z,19.51
2022-12-04T01:30:46.444Z,18.95
2022-12-04T01:33:13.582Z,19.17
2022-12-04T01:35:42.060Z,19.30
2022-12-04T01:38:09.401Z,18.44
2022-12-04T01:40:36.508Z,19.10
2022-12-04T01:43:03.601Z,18.36
2022-12-04T01:45:42.557Z,19.16
2022-12-04T01:48:18.217Z,18.25
2022-12-04T01:50:50.120Z,18.12
2022-12-04T01:53:18.221Z,18.76
2022-12-04T01:55:47.779Z,18.67
2022-12-04T01:58:20.279Z,18.79
2022-12-04T02:00:58.250Z,19.21
2022-12-04T02:03:25.781Z,18.98
2022-12-04T02:05:54.334Z,18.39
2022-12-04T02:08:22.082Z,18.93
2022-12-04T02:10:59.405Z,18.24
2022-12-04T02:13:36.779Z,18.23
2022-12-04T02:16:13.490Z,18.37
2022-12-04T02:18:53.932Z,18.78
2022-12-04T02:21:32.636Z,18.03
2022-12-04T02:24:23.160Z,18.06
2022-12-04T02:26:58.862Z,18.47
2022-12-04T02:29:39.559Z,18.38
2022-12-04T02:32:18.723Z,18.17
2022-12-04T02:34:55.679Z,18.15
2022-12-04T02:37:32.752Z,17.93
2022-12-04T02:40:06.742Z,17.88
2022-12-04T02:42:42.261Z,17.61
2022-12-04T02:45:17.603Z,17.82
2022-12-04T02:47:46.982Z,17.65
2022-12-04T02:50:17.601Z,17.24
2022-12-04T02:52:50.400Z,15.44
2022-12-04T02:55:24.079Z,13.01
2022-12-04T02:57:57.960Z,14.30
2022-12-04T03:00:30.440Z,13.19
2022-12-04T03:03:04.059Z,14.43
2022-12-04T03:05:39.461Z,14.55
2022-12-04T03:08:12.732Z,13.22
2022-12-04T03:10:49.039Z,12.91
2022-12-04T03:13:22.660Z,13.58
2022-12-04T03:15:59.121Z,12.52
2022-12-04T03:18:31.479Z,12.26
2022-12-04T03:21:05.900Z,12.33
2022-12-04T03:23:40.282Z,12.62
2022-12-04T03:26:14.759Z,14.09
2022-12-04T03:28:52.323Z,13.23
2022-12-04T03:31:31.979Z,13.30
2022-12-04T03:34:05.120Z,13.68
2022-12-04T03:36:37.662Z,13.21
2022-12-04T03:39:15.785Z,13.61
2022-12-04T03:41:55.540Z,13.79
2022-12-04T03:44:29.639Z,13.83
2022-12-04T03:47:06.239Z,13.82
2022-12-04T03:49:43.840Z,13.92
2022-12-04T03:52:17.080Z,13.73
2022-12-04T03:54:49.959Z,14.91
2022-12-04T03:57:24.487Z,14.78
2022-12-04T03:59:59.970Z,14.62
2022-12-04T04:02:36.580Z,14.07
2022-12-04T04:05:09.840Z,14.80
2022-12-04T04:07:43.948Z,14.74
2022-12-04T04:10:16.100Z,14.29
2022-12-04T04:12:49.220Z,14.72
2022-12-04T04:15:18.780Z,14.20
2022-12-04T04:17:51.200Z,14.07
2022-12-04T04:20:23.641Z,14.27
2022-12-04T04:22:56.700Z,14.60
2022-12-04T04:25:28.000Z,14.06
2022-12-04T04:27:57.260Z,14.93
2022-12-04T04:30:25.280Z,14.40
2022-12-04T04:33:06.319Z,15.10
2022-12-04T04:35:48.120Z,14.69
2022-12-04T04:38:26.459Z,14.60
2022-12-04T04:41:01.981Z,15.57
2022-12-04T04:43:38.320Z,15.37
2022-12-04T04:46:11.396Z,15.76
2022-12-04T04:48:45.240Z,15.51
2022-12-04T04:51:13.873Z,16.75
2022-12-04T04:53:46.962Z,15.15
2022-12-04T04:56:15.159Z,15.55
2022-12-04T04:58:43.083Z,15.00
2022-12-04T05:01:13.709Z,15.16
2022-12-04T05:03:43.040Z,15.63
2022-12-04T05:06:10.719Z,15.24
2022-12-04T05:08:38.265Z,14.62
2022-12-04T05:11:06.482Z,15.17
2022-12-04T05:13:33.900Z,14.77
2022-12-04T05:16:03.599Z,15.01
2022-12-04T05:18:32.359Z,15.14
2022-12-04T05:21:05.744Z,14.49
2022-12-04T05:23:32.900Z,15.54
2022-12-04T05:26:01.002Z,15.25
2022-12-04T05:28:28.243Z,14.94
2022-12-04T05:30:56.251Z,15.12
2022-12-04T05:33:23.420Z,16.10
2022-12-04T05:35:57.462Z,15.37
2022-12-04T05:38:26.061Z,14.97
2022-12-04T05:40:53.211Z,15.39
2022-12-04T05:43:20.362Z,15.89
2022-12-04T05:45:47.420Z,15.36
2022-12-04T05:48:14.520Z,15.41
2022-12-04T05:50:41.862Z,15.65
2022-12-04T05:53:08.922Z,16.48
2022-12-04T05:55:37.500Z,15.58
2022-12-04T05:58:04.742Z,16.30
2022-12-04T06:00:32.611Z,16.47
2022-12-04T06:02:59.759Z,15.76
2022-12-04T06:05:26.980Z,15.32
2022-12-04T06:07:54.152Z,16.11
2022-12-04T06:10:21.261Z,16.50
2022-12-04T06:12:49.802Z,17.00
2022-12-04T06:15:17.061Z,16.58
2022-12-04T06:17:44.179Z,16.15
2022-12-04T06:20:12.217Z,16.64
2022-12-04T06:22:39.561Z,16.91
2022-12-04T06:25:07.960Z,17.03
2022-12-04T06:27:35.102Z,16.46
2022-12-04T06:30:03.925Z,17.25
2022-12-04T06:32:30.981Z,16.97
2022-12-04T06:34:58.120Z,17.68
2022-12-04T06:37:25.580Z,17.77
2022-12-04T06:39:52.802Z,18.44
2022-12-04T06:42:20.039Z,17.82
2022-12-04T06:44:47.144Z,17.60
2022-12-04T06:47:15.700Z,17.85
2022-12-04T06:49:42.803Z,17.67
2022-12-04T06:52:10.003Z,18.44
2022-12-04T06:54:37.200Z,18.84
2022-12-04T06:57:04.381Z,18.34
2022-12-04T06:59:31.540Z,19.11
2022-12-04T07:01:58.666Z,20.17
2022-12-04T07:04:27.281Z,18.59
2022-12-04T07:06:54.442Z,18.78
2022-12-04T07:09:21.542Z,18.91
2022-12-04T07:11:48.620Z,19.36
2022-12-04T07:14:15.724Z,18.73
2022-12-04T07:16:43.505Z,18.44
2022-12-04T07:19:13.077Z,18.22
2022-12-04T07:21:42.580Z,18.88
2022-12-04T07:24:15.831Z,19.67
2022-12-04T07:26:42.962Z,19.04
2022-12-04T07:29:09.980Z,18.54
2022-12-04T07:31:37.993Z,18.28
2022-12-04T07:34:05.119Z,18.40
2022-12-04T07:36:32.261Z,18.47
2022-12-04T07:39:00.741Z,12.93
2022-12-04T07:41:27.869Z,12.58
2022-12-04T07:43:55.088Z,16.19
2022-12-04T07:46:26.780Z,16.59
2022-12-04T07:48:55.563Z,17.25
2022-12-04T07:51:25.460Z,17.86
2022-12-04T07:53:54.662Z,17.88
2022-12-04T07:56:23.420Z,17.33
2022-12-04T07:58:50.560Z,17.55
2022-12-04T08:01:20.608Z,17.02
2022-12-04T08:03:49.819Z,17.94
2022-12-04T08:06:18.831Z,17.27
2022-12-04T08:08:46.105Z,17.11
2022-12-04T08:11:16.519Z,18.72
2022-12-04T08:13:45.303Z,18.81
2022-12-04T08:16:14.670Z,17.82
2022-12-04T08:18:42.662Z,18.87
2022-12-04T08:21:12.803Z,18.25
2022-12-04T08:23:41.842Z,19.07
2022-12-04T08:26:09.820Z,19.37
2022-12-04T08:28:37.260Z,20.23
2022-12-04T08:31:07.822Z,20.54
2022-12-04T08:33:35.263Z,20.21
2022-12-04T08:36:05.702Z,20.31
2022-12-04T08:38:32.920Z,19.83
2022-12-04T08:41:00.450Z,19.45
2022-12-04T08:43:27.940Z,19.24
2022-12-04T08:45:56.493Z,18.95
2022-12-04T08:48:25.381Z,19.71
2022-12-04T08:50:52.642Z,20.16
2022-12-04T08:53:20.721Z,19.69
2022-12-04T08:55:48.000Z,20.07
2022-12-04T08:58:16.022Z,18.46
2022-12-04T09:00:43.290Z,19.54
2022-12-04T09:03:14.863Z,19.13
2022-12-04T09:05:44.520Z,18.11
2022-12-04T09:08:12.218Z,19.10
2022-12-04T09:10:39.522Z,17.67
2022-12-04T09:13:07.461Z,17.92
2022-12-04T09:15:35.134Z,17.45
2022-12-04T09:18:02.180Z,17.46
2022-12-04T09:20:29.301Z,18.33
2022-12-04T09:23:05.458Z,18.26
2022-12-04T09:25:36.441Z,18.22
2022-12-04T09:28:03.721Z,18.09
2022-12-04T09:30:30.782Z,17.38
2022-12-04T09:32:57.841Z,18.16
2022-12-04T09:35:24.947Z,17.96
2022-12-04T09:37:52.002Z,17.02
2022-12-04T09:40:29.517Z,17.76
2022-12-04T09:43:22.762Z,18.19
2022-12-04T09:45:59.238Z,17.33
2022-12-04T09:48:34.823Z,17.77
2022-12-04T09:51:06.541Z,17.08
2022-12-04T09:53:45.301Z,17.44
2022-12-04T09:56:18.003Z,16.93
2022-12-04T09:58:50.721Z,17.77
2022-12-04T10:01:24.381Z,18.62
2022-12-04T10:03:54.785Z,17.33
2022-12-04T10:06:26.167Z,18.75
2022-12-04T10:09:01.961Z,18.15
2022-12-04T10:11:45.261Z,18.70
2022-12-04T10:14:32.381Z,17.59
2022-12-04T10:17:18.423Z,18.09
2022-12-04T10:19:56.017Z,19.36
2022-12-04T10:22:33.644Z,20.15
2022-12-04T10:25:08.388Z,19.52
2022-12-04T10:27:45.922Z,19.52
2022-12-04T10:30:19.447Z,19.92
2022-12-04T10:32:48.222Z,19.29
2022-12-04T10:35:21.482Z,19.94
2022-12-04T10:37:56.841Z,19.49
2022-12-04T10:40:31.662Z,19.82
2022-12-04T10:43:12.586Z,19.49
2022-12-04T10:45:39.841Z,18.21
2022-12-04T10:48:20.363Z,17.86
2022-12-04T10:50:47.501Z,18.59
2022-12-04T10:53:16.481Z,18.16
2022-12-04T10:55:43.563Z,17.98
2022-12-04T10:58:17.667Z,17.64
2022-12-04T11:00:58.462Z,18.00
2022-12-04T11:03:29.380Z,18.26
2022-12-04T11:06:00.883Z,17.15
2022-12-04T11:08:36.701Z,18.48
2022-12-04T11:11:06.602Z,17.98
2022-12-04T11:13:35.401Z,18.45
2022-12-04T11:16:02.843Z,19.81
2022-12-04T11:18:31.961Z,18.72
2022-12-04T11:21:03.385Z,17.52
2022-12-04T11:23:35.022Z,19.35
2022-12-04T11:26:06.162Z,18.49
2022-12-04T11:28:44.296Z,18.97
2022-12-04T11:31:18.953Z,17.21
2022-12-04T11:33:52.804Z,17.63
2022-12-04T11:36:23.780Z,17.20
2022-12-04T11:38:53.313Z,17.07
2022-12-04T11:41:26.482Z,17.22
2022-12-04T11:44:00.007Z,16.61
2022-12-04T11:46:30.965Z,16.47
2022-12-04T11:48:58.320Z,16.01
2022-12-04T11:51:40.481Z,15.28
2022-12-04T11:54:19.822Z,16.32
2022-12-04T11:56:59.090Z,15.91
2022-12-04T11:59:44.164Z,15.53
2022-12-04T12:02:33.339Z,14.92
2022-12-04T12:05:40.662Z,14.96
2022-12-04T12:08:21.984Z,14.67
2022-12-04T12:10:59.407Z,15.35
2022-12-04T12:13:40.101Z,14.85
2022-12-04T12:16:19.771Z,19.77
2022-12-04T12:19:01.400Z,18.98
2022-12-04T12:21:39.680Z,18.29
2022-12-04T12:24:23.521Z,19.68
2022-12-04T12:27:01.510Z,19.27
2022-12-04T12:29:49.560Z,19.58
2022-12-04T12:32:38.422Z,18.94
2022-12-04T12:35:14.819Z,19.08
2022-12-04T12:37:47.922Z,19.60
2022-12-04T12:40:27.000Z,18.67
2022-12-04T12:42:58.746Z,17.77
2022-12-04T12:45:37.009Z,17.98
2022-12-04T12:48:16.400Z,16.80
2022-12-04T12:51:08.922Z,16.69
2022-12-04T12:53:42.642Z,16.86
2022-12-04T12:56:13.427Z,17.65
2022-12-04T12:58:49.021Z,18.22
2022-12-04T13:01:21.484Z,19.15
2022-12-04T13:03:58.660Z,18.91
2022-12-04T13:06:33.045Z,20.68
2022-12-04T13:09:12.082Z,20.48
2022-12-04T13:11:40.580Z,23.15
2022-12-04T13:14:11.601Z,22.89
2022-12-04T13:16:45.472Z,23.55
2022-12-04T13:19:23.281Z,22.95
2022-12-04T13:22:05.481Z,22.49
2022-12-04T13:25:04.165Z,22.42
2022-12-04T13:27:45.420Z,22.54
2022-12-04T13:30:18.983Z,22.46
2022-12-04T13:33:18.385Z,22.20
2022-12-04T13:36:13.381Z,21.88
2022-12-04T13:38:58.334Z,21.31
2022-12-04T13:41:28.320Z,21.14
2022-12-04T13:43:56.321Z,20.59
2022-12-04T13:46:29.874Z,20.68
2022-12-04T13:49:08.701Z,20.52
2022-12-04T13:51:39.843Z,21.79
2022-12-04T13:54:28.605Z,21.80
2022-12-04T13:56:58.441Z,27.07
2022-12-04T13:59:37.840Z,23.98
2022-12-04T14:02:24.760Z,23.64
2022-12-04T14:05:01.681Z,23.96
2022-12-04T14:07:33.772Z,23.53
2022-12-04T14:10:04.442Z,23.56
2022-12-04T14:12:36.424Z,22.98
2022-12-04T14:15:08.161Z,23.73
2022-12-04T14:17:38.501Z,23.84
2022-12-04T14:20:21.986Z,22.95
2022-12-04T14:22:50.801Z,22.28
2022-12-04T14:25:34.957Z,22.20
2022-12-04T14:28:14.130Z,22.13
2022-12-04T14:30:44.222Z,21.08
2022-12-04T14:33:20.541Z,21.35
2022-12-04T14:35:55.141Z,22.15
2022-12-04T14:38:25.023Z,23.26
2022-12-04T14:40:55.460Z,24.08
2022-12-04T14:43:27.680Z,22.95
2022-12-04T14:46:02.681Z,26.58
2022-12-04T14:48:41.701Z,25.77
2022-12-04T14:51:20.001Z,24.83
2022-12-04T14:53:58.421Z,25.07
2022-12-04T14:56:46.221Z,26.61
2022-12-04T14:59:17.990Z,27.04
2022-12-04T15:01:48.383Z,24.85
2022-12-04T15:04:26.306Z,23.35
2022-12-04T15:07:00.014Z,27.82
2022-12-04T15:09:29.704Z,24.47
2022-12-04T15:11:59.141Z,22.98
2022-12-04T15:14:26.240Z,22.60
2022-12-04T15:17:02.621Z,22.83
2022-12-04T15:19:29.861Z,22.29
2022-12-04T15:21:57.321Z,24.34
2022-12-04T15:24:25.503Z,25.83
2022-12-04T15:26:55.442Z,23.12
2022-12-04T15:29:28.260Z,22.46
2022-12-04T15:32:00.329Z,23.09
2022-12-04T15:34:38.480Z,22.44
2022-12-04T15:37:12.434Z,22.32
2022-12-04T15:39:40.222Z,22.65
2022-12-04T15:42:17.445Z,22.90
2022-12-04T15:44:53.537Z,23.38
2022-12-04T15:47:23.482Z,23.73
2022-12-04T15:49:50.921Z,23.04
2022-12-04T15:52:20.842Z,22.82
2022-12-04T15:54:55.083Z,22.72
2022-12-04T15:57:29.165Z,22.79
2022-12-04T15:59:59.081Z,22.83
2022-12-04T16:02:30.302Z,22.05
2022-12-04T16:04:57.824Z,21.96
2022-12-04T16:07:28.155Z,22.27
2022-12-04T16:10:03.288Z,22.35
2022-12-04T16:12:32.785Z,23.21
2022-12-04T16:14:59.940Z,23.43
2022-12-04T16:17:31.505Z,22.37
2022-12-04T16:20:00.353Z,22.14
2022-12-04T16:22:27.760Z,22.32
2022-12-04T16:24:55.184Z,22.43
2022-12-04T16:27:24.340Z,22.86
2022-12-04T16:29:53.424Z,22.22
2022-12-04T16:32:24.700Z,22.16
2022-12-04T16:34:51.840Z,22.99
2022-12-04T16:37:21.581Z,23.47
2022-12-04T16:39:49.300Z,23.54
2022-12-04T16:42:19.141Z,23.37
2022-12-04T16:44:46.526Z,23.34
2022-12-04T16:47:16.022Z,23.82
2022-12-04T16:49:45.022Z,22.84
2022-12-04T16:52:12.483Z,23.73
2022-12-04T16:54:39.963Z,23.68
2022-12-04T16:57:08.062Z,22.77
2022-12-04T16:59:35.927Z,23.41
2022-12-04T17:02:13.212Z,24.17
2022-12-04T17:04:41.903Z,25.00
2022-12-04T17:07:09.021Z,25.08
2022-12-04T17:09:36.261Z,24.47
2022-12-04T17:12:03.444Z,24.99
2022-12-04T17:14:30.741Z,24.70
2022-12-04T17:16:57.782Z,25.19
2022-12-04T17:19:25.121Z,24.46
2022-12-04T17:21:53.582Z,24.91
2022-12-04T17:24:20.721Z,25.32
2022-12-04T17:26:47.911Z,24.37
2022-12-04T17:29:15.023Z,24.86
2022-12-04T17:31:42.195Z,24.93
2022-12-04T17:34:09.504Z,24.56
2022-12-04T17:36:36.620Z,25.50
2022-12-04T17:39:05.443Z,24.55
2022-12-04T17:41:32.543Z,24.35
2022-12-04T17:43:59.942Z,25.56
2022-12-04T17:46:27.257Z,25.60
2022-12-04T17:48:56.402Z,25.77
2022-12-04T17:51:25.441Z,25.80
2022-12-04T17:53:52.801Z,24.76
2022-12-04T17:56:23.722Z,25.46
2022-12-04T17:58:51.685Z,24.29
2022-12-04T18:01:21.011Z,24.32
2022-12-04T18:03:50.806Z,24.00
2022-12-04T18:06:21.442Z,25.12
2022-12-04T18:08:50.438Z,23.54
2022-12-04T18:11:19.102Z,24.45
2022-12-04T18:13:47.961Z,26.11
2022-12-04T18:16:15.834Z,25.44
2022-12-04T18:18:43.181Z,23.51
2022-12-04T18:21:12.104Z,24.02
2022-12-04T18:23:41.422Z,24.20
2022-12-04T18:26:08.554Z,23.20
2022-12-04T18:28:35.722Z,23.10
2022-12-04T18:31:06.284Z,23.22
2022-12-04T18:33:35.301Z,23.28
2022-12-04T18:36:04.282Z,23.80
2022-12-04T18:38:32.366Z,24.29
2022-12-04T18:41:02.921Z,25.36
2022-12-04T18:43:32.622Z,25.09
2022-12-04T18:46:07.078Z,25.87
2022-12-04T18:48:37.302Z,25.11
2022-12-04T18:51:15.361Z,25.30
2022-12-04T18:53:43.082Z,24.83
2022-12-04T18:56:10.261Z,24.54
2022-12-04T18:58:37.461Z,23.71
2022-12-04T19:01:06.100Z,24.19
2022-12-04T19:03:35.241Z,24.04
2022-12-04T19:06:03.093Z,24.45
2022-12-04T19:08:33.751Z,24.22
2022-12-04T19:11:07.478Z,24.45
2022-12-04T19:13:35.161Z,24.84
2022-12-04T19:16:03.023Z,25.01
2022-12-04T19:18:30.721Z,25.65
2022-12-04T19:20:59.301Z,25.08
2022-12-04T19:23:26.463Z,24.11
2022-12-04T19:25:57.425Z,24.52
2022-12-04T19:28:25.682Z,24.99
2022-12-04T19:30:52.823Z,24.47
2022-12-04T19:33:22.062Z,24.05
2022-12-04T19:35:57.361Z,24.71
2022-12-04T19:38:26.442Z,26.03
2022-12-04T19:41:04.282Z,25.56
2022-12-04T19:43:31.520Z,24.90
2022-12-04T19:45:58.649Z,26.70
2022-12-04T19:48:25.821Z,27.63
2022-12-04T19:50:53.001Z,26.67
2022-12-04T19:53:20.284Z,26.37
2022-12-04T19:55:48.862Z,26.36
2022-12-04T19:58:15.963Z,25.06
2022-12-04T20:00:43.101Z,25.90
2022-12-04T20:03:10.302Z,25.29
2022-12-04T20:05:37.541Z,26.10
2022-12-04T20:10:31.720Z,25.48
2022-12-04T20:13:00.380Z,25.79
2022-12-04T20:15:27.521Z,25.76
2022-12-04T20:17:54.622Z,26.00
2022-12-04T20:20:21.660Z,25.80
2022-12-04T20:22:48.861Z,25.99
2022-12-04T20:25:16.021Z,26.06
2022-12-04T20:27:43.141Z,26.61
2022-12-04T20:30:12.040Z,26.92
2022-12-04T20:32:39.223Z,25.83
2022-12-04T20:35:07.641Z,26.50
2022-12-04T20:37:34.786Z,27.42
2022-12-04T20:40:02.284Z,28.52
2022-12-04T20:42:33.511Z,27.85
2022-12-04T20:45:00.982Z,27.60
2022-12-04T20:47:29.722Z,26.76
2022-12-04T20:49:57.151Z,26.52
2022-12-04T20:52:24.503Z,25.98
2022-12-04T20:54:51.704Z,22.26
2022-12-04T20:57:18.901Z,12.06
2022-12-04T20:59:46.066Z,17.41
2022-12-04T21:02:13.379Z,18.44
2022-12-04T21:04:41.900Z,19.72
2022-12-04T21:07:09.040Z,23.80
2022-12-04T21:09:36.443Z,24.35
2022-12-04T21:12:05.218Z,25.08
2022-12-04T21:14:32.320Z,24.97
2022-12-04T21:16:59.987Z,26.65
2022-12-04T21:19:27.703Z,26.46
2022-12-04T21:21:56.321Z,26.83
2022-12-04T21:24:24.882Z,27.37
2022-12-04T21:26:52.462Z,26.34
2022-12-04T21:29:19.701Z,24.98
2022-12-04T21:31:47.019Z,25.42
2022-12-04T21:34:16.564Z,24.63
2022-12-04T21:36:44.199Z,25.30
2022-12-04T21:39:13.801Z,24.58
2022-12-04T21:41:41.222Z,22.74
2022-12-04T21:44:11.621Z,21.05
2022-12-04T21:46:39.621Z,18.17
2022-12-04T21:49:07.800Z,16.20
2022-12-04T21:54:23.899Z,12.87
2022-12-04T21:56:51.142Z,11.50
2022-12-04T21:59:18.220Z,11.85
2022-12-04T22:01:45.996Z,11.54
2022-12-04T22:04:13.366Z,10.54
2022-12-04T22:06:40.523Z,9.37
2022-12-04T22:09:09.903Z,9.21
2022-12-04T22:11:38.680Z,9.33
2022-12-04T22:14:05.785Z,8.53
2022-12-04T22:16:36.925Z,8.63
2022-12-04T22:19:07.680Z,8.29
2022-12-04T22:21:34.802Z,8.20
2022-12-04T22:24:04.230Z,7.72
2022-12-04T22:26:32.242Z,8.19
2022-12-04T22:29:00.869Z,8.00
2022-12-04T22:31:30.019Z,7.93
2022-12-04T22:33:59.761Z,8.54
2022-12-04T22:36:29.880Z,8.28
2022-12-04T22:39:12.405Z,8.67
2022-12-04T22:41:39.725Z,8.87
2022-12-04T22:44:08.281Z,9.63
2022-12-04T22:46:36.210Z,10.31
2022-12-04T22:49:03.780Z,10.52
2022-12-04T22:51:31.260Z,10.41
2022-12-04T22:53:58.879Z,9.95
2022-12-04T22:56:28.181Z,9.59
2022-12-04T22:58:55.700Z,9.60
2022-12-04T23:01:26.027Z,9.93
2022-12-04T23:03:54.682Z,9.64
2022-12-04T23:06:24.179Z,9.63
2022-12-04T23:08:55.739Z,9.87
2022-12-04T23:11:24.400Z,9.24
2022-12-04T23:13:53.443Z,9.69
2022-12-04T23:16:23.712Z,9.66
2022-12-04T23:18:51.288Z,10.38
2022-12-04T23:21:20.741Z,10.05
2022-12-04T23:23:49.340Z,9.70
2022-12-04T23:26:19.020Z,9.45
2022-12-04T23:28:47.041Z,9.96
2022-12-04T23:31:15.423Z,10.77
2022-12-04T23:33:44.108Z,9.32
2022-12-04T23:36:12.960Z,9.78
2022-12-04T23:38:42.180Z,9.46
2022-12-04T23:41:12.961Z,9.86
2022-12-04T23:43:41.321Z,9.37
2022-12-04T23:46:11.663Z,9.47
2022-12-04T23:48:39.737Z,9.47
2022-12-04T23:51:10.061Z,9.49
2022-12-04T23:53:37.840Z,9.27
2022-12-04T23:56:10.141Z,8.96
2022-12-04T23:58:38.740Z,9.32
